sensor_id;sensor_type;location;lat;lon;timestamp;pressure;altitude;pressure_sealevel;temperature;humidity
79230;BME280;68663;49.122;17.544;2023-09-19T00:02:04;98658.97;;;25.58;53.12
79230;BME280;68663;49.122;17.544;2023-09-19T00:04:34;98658.50;;;25.60;53.03
79230;BME280;68663;49.122;17.544;2023-09-19T00:06:59;98658.06;;;25.61;53.09
79230;BME280;68663;49.122;17.544;2023-09-19T00:09:28;98664.97;;;25.60;53.02
79230;BME280;68663;49.122;17.544;2023-09-19T00:11:55;98669.38;;;25.61;52.94
79230;BME280;68663;49.122;17.544;2023-09-19T00:14:20;98668.13;;;25.62;53.14
79230;BME280;68663;49.122;17.544;2023-09-19T00:16:49;98670.16;;;25.62;53.44
79230;BME280;68663;49.122;17.544;2023-09-19T00:19:15;98660.56;;;25.59;53.14
79230;BME280;68663;49.122;17.544;2023-09-19T00:21:41;98659.88;;;25.55;53.36
79230;BME280;68663;49.122;17.544;2023-09-19T00:24:07;98662.38;;;25.53;53.26
79230;BME280;68663;49.122;17.544;2023-09-19T00:26:34;98658.63;;;25.56;53.05
79230;BME280;68663;49.122;17.544;2023-09-19T00:29:00;98666.78;;;25.54;52.99
79230;BME280;68663;49.122;17.544;2023-09-19T00:31:33;98657.19;;;25.52;53.24
79230;BME280;68663;49.122;17.544;2023-09-19T00:33:58;98665.22;;;25.53;53.23
79230;BME280;68663;49.122;17.544;2023-09-19T00:36:25;98656.72;;;25.53;53.19
79230;BME280;68663;49.122;17.544;2023-09-19T00:38:51;98652.78;;;25.51;53.05
79230;BME280;68663;49.122;17.544;2023-09-19T00:41:16;98660.47;;;25.50;53.39
79230;BME280;68663;49.122;17.544;2023-09-19T00:43:42;98659.56;;;25.53;53.43
79230;BME280;68663;49.122;17.544;2023-09-19T00:46:08;98662.72;;;25.55;53.43
79230;BME280;68663;49.122;17.544;2023-09-19T00:48:40;98662.72;;;25.55;53.14
79230;BME280;68663;49.122;17.544;2023-09-19T00:51:06;98657.84;;;25.56;53.40
79230;BME280;68663;49.122;17.544;2023-09-19T00:53:32;98658.63;;;25.56;53.42
79230;BME280;68663;49.122;17.544;2023-09-19T00:55:59;98657.97;;;25.52;53.68
79230;BME280;68663;49.122;17.544;2023-09-19T00:58:25;98661.13;;;25.54;53.22
79230;BME280;68663;49.122;17.544;2023-09-19T01:00:51;98661.13;;;25.54;53.41
79230;BME280;68663;49.122;17.544;2023-09-19T01:03:18;98662.72;;;25.55;53.49
79230;BME280;68663;49.122;17.544;2023-09-19T01:05:44;98659.88;;;25.55;53.81
79230;BME280;68663;49.122;17.544;2023-09-19T01:08:09;98674.03;;;25.55;53.35
79230;BME280;68663;49.122;17.544;2023-09-19T01:10:41;98662.72;;;25.55;53.63
79230;BME280;68663;49.122;17.544;2023-09-19T01:14:20;98658.31;;;25.54;53.60
79230;BME280;68663;49.122;17.544;2023-09-19T01:16:50;98659.56;;;25.53;53.82
79230;BME280;68663;49.122;17.544;2023-09-19T01:19:33;98655.94;;;25.53;53.89
79230;BME280;68663;49.122;17.544;2023-09-19T01:22:37;98657.97;;;25.52;53.82
79230;BME280;68663;49.122;17.544;2023-09-19T01:25:42;98653.09;;;25.53;54.13
79230;BME280;68663;49.122;17.544;2023-09-19T01:28:39;98649.81;;;25.54;53.79
79230;BME280;68663;49.122;17.544;2023-09-19T01:31:10;98642.56;;;25.53;54.16
79230;BME280;68663;49.122;17.544;2023-09-19T01:33:56;98637.25;;;25.55;54.32
79230;BME280;68663;49.122;17.544;2023-09-19T01:36:26;98647.31;;;25.56;54.05
79230;BME280;68663;49.122;17.544;2023-09-19T01:38:53;98642.44;;;25.57;54.25
79230;BME280;68663;49.122;17.544;2023-09-19T01:44:22;98660.22;;;25.57;54.21
79230;BME280;68663;49.122;17.544;2023-09-19T01:46:49;98670.75;;;25.57;54.46
79230;BME280;68663;49.122;17.544;2023-09-19T01:51:53;98689.44;;;25.54;54.40
79230;BME280;68663;49.122;17.544;2023-09-19T01:54:27;98693.53;;;25.53;54.38
79230;BME280;68663;49.122;17.544;2023-09-19T01:57:09;98696.69;;;25.55;54.33
79230;BME280;68663;49.122;17.544;2023-09-19T01:59:45;98687.75;;;25.57;54.06
79230;BME280;68663;49.122;17.544;2023-09-19T02:02:13;98686.50;;;25.58;54.38
79230;BME280;68663;49.122;17.544;2023-09-19T02:04:40;98688.06;;;25.59;54.49
79230;BME280;68663;49.122;17.544;2023-09-19T02:07:06;98690.09;;;25.58;54.18
79230;BME280;68663;49.122;17.544;2023-09-19T02:09:33;98694.97;;;25.58;54.37
79230;BME280;68663;49.122;17.544;2023-09-19T02:12:01;98700.44;;;25.52;54.43
79230;BME280;68663;49.122;17.544;2023-09-19T02:14:29;98693.53;;;25.53;54.14
79230;BME280;68663;49.122;17.544;2023-09-19T02:16:55;98693.53;;;25.53;54.40
79230;BME280;68663;49.122;17.544;2023-09-19T02:19:21;98694.44;;;25.50;54.39
79230;BME280;68663;49.122;17.544;2023-09-19T02:21:47;98696.94;;;25.48;54.29
79230;BME280;68663;49.122;17.544;2023-09-19T02:24:14;98696.94;;;25.48;54.62
79230;BME280;68663;49.122;17.544;2023-09-19T02:26:40;98703.84;;;25.47;54.50
79230;BME280;68663;49.122;17.544;2023-09-19T02:29:06;98704.16;;;25.49;54.39
79230;BME280;68663;49.122;17.544;2023-09-19T02:31:31;98709.84;;;25.49;54.52
79230;BME280;68663;49.122;17.544;2023-09-19T02:33:56;98700.09;;;25.50;54.42
79230;BME280;68663;49.122;17.544;2023-09-19T02:36:22;98696.00;;;25.51;54.34
79230;BME280;68663;49.122;17.544;2023-09-19T02:38:49;98696.00;;;25.51;54.40
79230;BME280;68663;49.122;17.544;2023-09-19T02:41:14;98702.00;;;25.53;54.41
79230;BME280;68663;49.122;17.544;2023-09-19T02:43:40;98701.56;;;25.55;54.25
79230;BME280;68663;49.122;17.544;2023-09-19T02:46:05;98710.50;;;25.53;54.45
79230;BME280;68663;49.122;17.544;2023-09-19T02:48:30;98717.75;;;25.54;54.40
79230;BME280;68663;49.122;17.544;2023-09-19T02:50:57;98712.09;;;25.54;54.05
79230;BME280;68663;49.122;17.544;2023-09-19T02:53:22;98711.75;;;25.52;54.09
79230;BME280;68663;49.122;17.544;2023-09-19T02:55:49;98710.63;;;25.50;53.92
79230;BME280;68663;49.122;17.544;2023-09-19T02:58:15;98709.84;;;25.49;54.24
79230;BME280;68663;49.122;17.544;2023-09-19T03:00:41;98712.66;;;25.49;53.95
79230;BME280;68663;49.122;17.544;2023-09-19T03:03:15;98709.16;;;25.45;54.16
79230;BME280;68663;49.122;17.544;2023-09-19T03:05:41;98716.53;;;25.43;53.94
79230;BME280;68663;49.122;17.544;2023-09-19T03:08:15;98722.75;;;25.37;54.25
79230;BME280;68663;49.122;17.544;2023-09-19T03:10:42;98721.38;;;25.42;54.25
79230;BME280;68663;49.122;17.544;2023-09-19T03:13:07;98733.50;;;25.43;54.25
79230;BME280;68663;49.122;17.544;2023-09-19T03:15:35;98745.28;;;25.41;53.92
79230;BME280;68663;49.122;17.544;2023-09-19T03:18:04;98750.94;;;25.41;54.01
79230;BME280;68663;49.122;17.544;2023-09-19T03:20:30;98767.00;;;25.44;54.04
79230;BME280;68663;49.122;17.544;2023-09-19T03:22:55;98768.25;;;25.43;54.26
79230;BME280;68663;49.122;17.544;2023-09-19T03:25:22;98781.16;;;25.44;54.45
79230;BME280;68663;49.122;17.544;2023-09-19T03:27:48;98791.25;;;25.45;54.39
79230;BME280;68663;49.122;17.544;2023-09-19T03:30:13;98802.09;;;25.47;54.35
79230;BME280;68663;49.122;17.544;2023-09-19T03:32:47;98811.38;;;25.47;54.37
79230;BME280;68663;49.122;17.544;2023-09-19T03:35:15;98825.09;;;25.49;54.19
79230;BME280;68663;49.122;17.544;2023-09-19T03:37:41;98828.72;;;25.49;54.36
79230;BME280;68663;49.122;17.544;2023-09-19T03:40:08;98841.63;;;25.50;53.86
79230;BME280;68663;49.122;17.544;2023-09-19T03:42:41;98858.59;;;25.50;54.49
79230;BME280;68663;49.122;17.544;2023-09-19T03:45:08;98868.22;;;25.53;54.08
79230;BME280;68663;49.122;17.544;2023-09-19T03:47:37;98871.50;;;25.51;54.40
79230;BME280;68663;49.122;17.544;2023-09-19T03:50:05;98869.03;;;25.53;54.24
79230;BME280;68663;49.122;17.544;2023-09-19T03:52:30;98870.59;;;25.54;53.92
79230;BME280;68663;49.122;17.544;2023-09-19T03:54:56;98882.38;;;25.53;54.42
79230;BME280;68663;49.122;17.544;2023-09-19T03:57:22;98880.44;;;25.50;54.64
79230;BME280;68663;49.122;17.544;2023-09-19T03:59:47;98882.50;;;25.49;54.71
79230;BME280;68663;49.122;17.544;2023-09-19T04:02:13;98888.16;;;25.49;54.58
79230;BME280;68663;49.122;17.544;2023-09-19T04:04:48;98890.06;;;25.52;54.56
79230;BME280;68663;49.122;17.544;2023-09-19T04:07:13;98884.41;;;25.52;54.22
79230;BME280;68663;49.122;17.544;2023-09-19T04:09:39;98885.22;;;25.53;54.46
79230;BME280;68663;49.122;17.544;2023-09-19T04:12:05;98883.63;;;25.52;54.26
79230;BME280;68663;49.122;17.544;2023-09-19T04:14:30;98897.53;;;25.46;54.58
79230;BME280;68663;49.122;17.544;2023-09-19T04:16:56;98894.72;;;25.46;54.82
79230;BME280;68663;49.122;17.544;2023-09-19T04:19:21;98889.41;;;25.48;54.91
79230;BME280;68663;49.122;17.544;2023-09-19T04:21:47;98878.88;;;25.49;54.93
79230;BME280;68663;49.122;17.544;2023-09-19T04:24:12;98883.72;;;25.48;54.41
79230;BME280;68663;49.122;17.544;2023-09-19T04:26:38;98879.66;;;25.49;54.97
79230;BME280;68663;49.122;17.544;2023-09-19T04:29:04;98870.72;;;25.51;55.00
79230;BME280;68663;49.122;17.544;2023-09-19T04:31:30;98877.97;;;25.52;54.94
79230;BME280;68663;49.122;17.544;2023-09-19T04:33:57;98866.19;;;25.53;54.87
79230;BME280;68663;49.122;17.544;2023-09-19T04:36:24;98867.78;;;25.54;54.99
79230;BME280;68663;49.122;17.544;2023-09-19T04:38:49;98870.16;;;25.56;54.71
79230;BME280;68663;49.122;17.544;2023-09-19T04:41:15;98875.03;;;25.55;54.61
79230;BME280;68663;49.122;17.544;2023-09-19T04:43:40;98881.94;;;25.54;54.57
79230;BME280;68663;49.122;17.544;2023-09-19T04:46:06;98881.94;;;25.54;54.75
79230;BME280;68663;49.122;17.544;2023-09-19T04:48:32;98884.75;;;25.54;54.47
79230;BME280;68663;49.122;17.544;2023-09-19T04:50:59;98880.69;;;25.55;54.85
79230;BME280;68663;49.122;17.544;2023-09-19T04:53:25;98892.34;;;25.57;54.63
79230;BME280;68663;49.122;17.544;2023-09-19T04:55:53;98877.06;;;25.55;54.60
79230;BME280;68663;49.122;17.544;2023-09-19T04:58:21;98886.34;;;25.55;54.53
79230;BME280;68663;49.122;17.544;2023-09-19T05:00:46;98885.09;;;25.56;54.37
79230;BME280;68663;49.122;17.544;2023-09-19T05:03:12;98883.97;;;25.54;54.21
79230;BME280;68663;49.122;17.544;2023-09-19T05:05:37;98888.38;;;25.55;54.40
79230;BME280;68663;49.122;17.544;2023-09-19T05:08:04;98894.50;;;25.53;54.45
79230;BME280;68663;49.122;17.544;2023-09-19T05:10:31;98896.53;;;25.53;54.49
79230;BME280;68663;49.122;17.544;2023-09-19T05:12:57;98896.53;;;25.53;54.41
79230;BME280;68663;49.122;17.544;2023-09-19T05:15:22;98901.41;;;25.52;54.70
79230;BME280;68663;49.122;17.544;2023-09-19T05:17:49;98904.56;;;25.54;54.70
79230;BME280;68663;49.122;17.544;2023-09-19T05:20:15;98898.13;;;25.54;54.72
79230;BME280;68663;49.122;17.544;2023-09-19T05:22:41;98892.44;;;25.54;54.53
79230;BME280;68663;49.122;17.544;2023-09-19T05:25:11;98891.22;;;25.55;54.56
79230;BME280;68663;49.122;17.544;2023-09-19T05:27:40;98900.50;;;25.55;54.47
79230;BME280;68663;49.122;17.544;2023-09-19T05:30:07;98911.81;;;25.55;54.25
79230;BME280;68663;49.122;17.544;2023-09-19T05:32:33;98913.41;;;25.56;54.31
79230;BME280;68663;49.122;17.544;2023-09-19T05:34:59;98904.91;;;25.56;54.14
79230;BME280;68663;49.122;17.544;2023-09-19T05:37:24;98914.19;;;25.57;54.32
79230;BME280;68663;49.122;17.544;2023-09-19T05:39:51;98910.56;;;25.56;54.03
79230;BME280;68663;49.122;17.544;2023-09-19T05:42:18;98908.53;;;25.57;53.93
79230;BME280;68663;49.122;17.544;2023-09-19T05:44:43;98909.34;;;25.57;54.17
79230;BME280;68663;49.122;17.544;2023-09-19T05:47:09;98914.66;;;25.55;54.00
79230;BME280;68663;49.122;17.544;2023-09-19T05:49:37;98911.81;;;25.55;54.02
79230;BME280;68663;49.122;17.544;2023-09-19T05:52:06;98917.47;;;25.55;53.79
79230;BME280;68663;49.122;17.544;2023-09-19T05:54:31;98925.97;;;25.55;53.66
79230;BME280;68663;49.122;17.544;2023-09-19T05:56:58;98931.28;;;25.53;54.06
79230;BME280;68663;49.122;17.544;2023-09-19T05:59:24;98937.75;;;25.54;53.68
79230;BME280;68663;49.122;17.544;2023-09-19T06:01:49;98948.28;;;25.53;53.94
79230;BME280;68663;49.122;17.544;2023-09-19T06:04:15;98949.53;;;25.52;53.86
79230;BME280;68663;49.122;17.544;2023-09-19T06:06:40;98962.09;;;25.51;53.86
79230;BME280;68663;49.122;17.544;2023-09-19T06:09:06;98952.34;;;25.52;53.97
79230;BME280;68663;49.122;17.544;2023-09-19T06:11:34;98958.00;;;25.52;54.02
79230;BME280;68663;49.122;17.544;2023-09-19T06:14:01;98958.00;;;25.52;53.93
79230;BME280;68663;49.122;17.544;2023-09-19T06:16:30;98958.00;;;25.52;53.99
79230;BME280;68663;49.122;17.544;2023-09-19T06:18:57;98959.59;;;25.53;53.91
79230;BME280;68663;49.122;17.544;2023-09-19T06:21:24;98962.78;;;25.55;53.81
79230;BME280;68663;49.122;17.544;2023-09-19T06:23:49;98965.25;;;25.53;53.64
79230;BME280;68663;49.122;17.544;2023-09-19T06:26:14;98972.50;;;25.54;53.48
79230;BME280;68663;49.122;17.544;2023-09-19T06:28:40;98982.25;;;25.53;53.89
79230;BME280;68663;49.122;17.544;2023-09-19T06:31:06;98989.50;;;25.54;53.60
79230;BME280;68663;49.122;17.544;2023-09-19T06:33:38;98988.69;;;25.54;53.76
79230;BME280;68663;49.122;17.544;2023-09-19T06:36:05;98999.22;;;25.53;53.38
79230;BME280;68663;49.122;17.544;2023-09-19T06:38:31;99000.81;;;25.54;53.57
79230;BME280;68663;49.122;17.544;2023-09-19T06:40:58;98993.56;;;25.53;53.60
79230;BME280;68663;49.122;17.544;2023-09-19T06:43:24;98984.28;;;25.53;53.71
79230;BME280;68663;49.122;17.544;2023-09-19T06:45:49;98976.59;;;25.53;53.51
79230;BME280;68663;49.122;17.544;2023-09-19T06:48:17;98980.31;;;25.50;53.50
79230;BME280;68663;49.122;17.544;2023-09-19T06:50:43;98984.38;;;25.49;53.51
79230;BME280;68663;49.122;17.544;2023-09-19T06:53:10;98985.63;;;25.48;53.45
79230;BME280;68663;49.122;17.544;2023-09-19T06:55:35;98977.13;;;25.48;53.39
79230;BME280;68663;49.122;17.544;2023-09-19T06:58:02;98979.97;;;25.48;53.57
79230;BME280;68663;49.122;17.544;2023-09-19T07:00:27;98987.22;;;25.49;53.56
79230;BME280;68663;49.122;17.544;2023-09-19T07:05:22;98991.63;;;25.50;53.35
79230;BME280;68663;49.122;17.544;2023-09-19T07:07:48;99013.50;;;25.50;53.68
79230;BME280;68663;49.122;17.544;2023-09-19T07:10:13;99026.41;;;25.51;53.38
79230;BME280;68663;49.122;17.544;2023-09-19T07:12:39;99028.78;;;25.52;53.41
79230;BME280;68663;49.122;17.544;2023-09-19T07:15:06;99030.03;;;25.51;53.23
79230;BME280;68663;49.122;17.544;2023-09-19T07:17:32;99040.91;;;25.53;53.32
79230;BME280;68663;49.122;17.544;2023-09-19T07:19:58;99026.75;;;25.53;53.54
79230;BME280;68663;49.122;17.544;2023-09-19T07:22:25;99043.72;;;25.53;53.54
79230;BME280;68663;49.122;17.544;2023-09-19T07:24:51;99036.03;;;25.53;53.25
79230;BME280;68663;49.122;17.544;2023-09-19T07:27:17;99038.88;;;25.53;53.37
79230;BME280;68663;49.122;17.544;2023-09-19T07:29:42;99035.25;;;25.53;53.44
79230;BME280;68663;49.122;17.544;2023-09-19T07:32:08;99042.94;;;25.52;53.58
79230;BME280;68663;49.122;17.544;2023-09-19T07:34:35;99039.75;;;25.50;53.41
79230;BME280;68663;49.122;17.544;2023-09-19T07:37:01;99045.41;;;25.50;53.31
79230;BME280;68663;49.122;17.544;2023-09-19T07:39:27;99046.31;;;25.47;53.41
79230;BME280;68663;49.122;17.544;2023-09-19T07:41:53;99043.13;;;25.45;53.15
79230;BME280;68663;49.122;17.544;2023-09-19T07:44:19;99044.72;;;25.46;53.38
79230;BME280;68663;49.122;17.544;2023-09-19T07:46:45;99044.28;;;25.48;53.49
79230;BME280;68663;49.122;17.544;2023-09-19T07:49:10;99041.91;;;25.46;53.50
79230;BME280;68663;49.122;17.544;2023-09-19T07:51:36;99038.63;;;25.48;53.28
79230;BME280;68663;49.122;17.544;2023-09-19T07:54:02;99048.69;;;25.49;53.01
79230;BME280;68663;49.122;17.544;2023-09-19T07:56:27;99046.66;;;25.49;53.37
79230;BME280;68663;49.122;17.544;2023-09-19T07:58:53;99046.66;;;25.49;53.24
79230;BME280;68663;49.122;17.544;2023-09-19T08:01:18;99043.81;;;25.49;53.53
79230;BME280;68663;49.122;17.544;2023-09-19T08:03:44;99041.78;;;25.50;53.36
79230;BME280;68663;49.122;17.544;2023-09-19T08:06:10;99045.41;;;25.50;53.35
79230;BME280;68663;49.122;17.544;2023-09-19T08:08:37;99044.63;;;25.50;53.03
79230;BME280;68663;49.122;17.544;2023-09-19T08:11:03;99039.75;;;25.50;52.97
79230;BME280;68663;49.122;17.544;2023-09-19T08:13:49;99047.81;;;25.52;53.19
79230;BME280;68663;49.122;17.544;2023-09-19T08:16:16;99044.63;;;25.50;53.20
79230;BME280;68663;49.122;17.544;2023-09-19T08:18:47;99044.63;;;25.50;53.18
79230;BME280;68663;49.122;17.544;2023-09-19T08:21:13;99043.81;;;25.49;53.29
79230;BME280;68663;49.122;17.544;2023-09-19T08:23:40;99047.91;;;25.48;53.22
79230;BME280;68663;49.122;17.544;2023-09-19T08:26:06;99039.41;;;25.48;53.31
79230;BME280;68663;49.122;17.544;2023-09-19T08:28:33;99045.53;;;25.47;53.70
79230;BME280;68663;49.122;17.544;2023-09-19T08:31:06;99040.31;;;25.45;53.44
79230;BME280;68663;49.122;17.544;2023-09-19T08:33:32;99043.13;;;25.45;53.33
79230;BME280;68663;49.122;17.544;2023-09-19T08:35:59;99039.06;;;25.46;53.30
79230;BME280;68663;49.122;17.544;2023-09-19T08:38:24;99036.22;;;25.46;53.37
79230;BME280;68663;49.122;17.544;2023-09-19T08:40:57;99041.44;;;25.48;53.28
79230;BME280;68663;49.122;17.544;2023-09-19T08:43:22;99038.63;;;25.48;53.44
79230;BME280;68663;49.122;17.544;2023-09-19T08:45:49;99045.06;;;25.48;53.23
79230;BME280;68663;49.122;17.544;2023-09-19T08:48:27;99039.75;;;25.50;53.19
79230;BME280;68663;49.122;17.544;2023-09-19T08:53:42;99053.47;;;25.52;53.49
79230;BME280;68663;49.122;17.544;2023-09-19T08:56:16;99060.72;;;25.53;53.17
79230;BME280;68663;49.122;17.544;2023-09-19T08:58:55;99054.25;;;25.52;53.45
79230;BME280;68663;49.122;17.544;2023-09-19T09:01:24;99062.31;;;25.54;53.32
79230;BME280;68663;49.122;17.544;2023-09-19T09:03:53;99061.50;;;25.53;53.17
79230;BME280;68663;49.122;17.544;2023-09-19T09:06:23;99056.63;;;25.54;53.38
79230;BME280;68663;49.122;17.544;2023-09-19T09:08:52;99064.34;;;25.53;53.31
79230;BME280;68663;49.122;17.544;2023-09-19T09:11:18;99074.88;;;25.53;53.07
79230;BME280;68663;49.122;17.544;2023-09-19T09:13:44;99071.25;;;25.52;53.35
79230;BME280;68663;49.122;17.544;2023-09-19T09:16:10;99077.34;;;25.51;53.22
79230;BME280;68663;49.122;17.544;2023-09-19T09:18:36;99083.47;;;25.49;53.19
79230;BME280;68663;49.122;17.544;2023-09-19T09:21:02;99089.91;;;25.50;53.46
79230;BME280;68663;49.122;17.544;2023-09-19T09:23:30;99094.34;;;25.51;53.68
79230;BME280;68663;49.122;17.544;2023-09-19T09:25:57;99098.31;;;25.53;53.40
79230;BME280;68663;49.122;17.544;2023-09-19T09:28:29;99102.72;;;25.54;53.33
79230;BME280;68663;49.122;17.544;2023-09-19T09:30:55;99103.97;;;25.53;53.28
79230;BME280;68663;49.122;17.544;2023-09-19T09:33:22;99102.72;;;25.54;53.34
79230;BME280;68663;49.122;17.544;2023-09-19T09:36:01;99094.59;;;25.56;53.28
79230;BME280;68663;49.122;17.544;2023-09-19T09:38:29;99102.63;;;25.58;53.07
79230;BME280;68663;49.122;17.544;2023-09-19T09:40:58;99103.41;;;25.58;53.25
79230;BME280;68663;49.122;17.544;2023-09-19T09:43:35;99102.97;;;25.60;53.43
79230;BME280;68663;49.122;17.544;2023-09-19T09:49:05;99111.38;;;25.63;53.34
79230;BME280;68663;49.122;17.544;2023-09-19T09:52:03;99112.16;;;25.64;53.49
79230;BME280;68663;49.122;17.544;2023-09-19T09:55:04;99117.81;;;25.64;53.49
79230;BME280;68663;49.122;17.544;2023-09-19T09:57:33;99113.75;;;25.65;53.24
79230;BME280;68663;49.122;17.544;2023-09-19T10:00:00;99114.59;;;25.65;53.25
79230;BME280;68663;49.122;17.544;2023-09-19T10:02:38;99110.50;;;25.66;53.25
79230;BME280;68663;49.122;17.544;2023-09-19T10:05:17;99102.00;;;25.66;53.34
79230;BME280;68663;49.122;17.544;2023-09-19T10:07:52;99108.03;;;25.68;53.15
79230;BME280;68663;49.122;17.544;2023-09-19T10:13:25;99111.19;;;25.70;53.39
79230;BME280;68663;49.122;17.544;2023-09-19T10:15:53;99110.66;;;25.76;53.38
79230;BME280;68663;49.122;17.544;2023-09-19T10:18:22;99111.53;;;25.73;53.10
79230;BME280;68663;49.122;17.544;2023-09-19T10:20:48;99111.53;;;25.73;53.37
79230;BME280;68663;49.122;17.544;2023-09-19T10:23:17;99107.47;;;25.74;53.41
79230;BME280;68663;49.122;17.544;2023-09-19T10:25:48;99109.50;;;25.73;53.28
79230;BME280;68663;49.122;17.544;2023-09-19T10:28:16;99116.31;;;25.76;53.21
79230;BME280;68663;49.122;17.544;2023-09-19T10:30:47;99117.56;;;25.75;53.30
79230;BME280;68663;49.122;17.544;2023-09-19T10:33:16;99125.25;;;25.74;53.19
79230;BME280;68663;49.122;17.544;2023-09-19T10:35:47;99133.75;;;25.74;53.08
79230;BME280;68663;49.122;17.544;2023-09-19T10:38:14;99130.47;;;25.76;53.70
79230;BME280;68663;49.122;17.544;2023-09-19T10:40:40;99132.97;;;25.74;53.27
79230;BME280;68663;49.122;17.544;2023-09-19T10:43:17;99132.63;;;25.71;53.14
79230;BME280;68663;49.122;17.544;2023-09-19T10:45:43;99141.56;;;25.70;53.26
79230;BME280;68663;49.122;17.544;2023-09-19T10:48:09;99139.16;;;25.68;52.95
79230;BME280;68663;49.122;17.544;2023-09-19T10:51:01;99135.53;;;25.68;52.97
79230;BME280;68663;49.122;17.544;2023-09-19T10:54:01;99144.03;;;25.68;53.04
79230;BME280;68663;49.122;17.544;2023-09-19T10:56:29;99142.78;;;25.69;53.34
79230;BME280;68663;49.122;17.544;2023-09-19T10:59:10;99147.66;;;25.68;53.02
79230;BME280;68663;49.122;17.544;2023-09-19T11:01:50;99148.47;;;25.69;53.29
79230;BME280;68663;49.122;17.544;2023-09-19T11:04:24;99149.25;;;25.69;52.80
79230;BME280;68663;49.122;17.544;2023-09-19T11:07:07;99138.72;;;25.70;53.03
79230;BME280;68663;49.122;17.544;2023-09-19T11:09:52;99132.63;;;25.71;52.92
79230;BME280;68663;49.122;17.544;2023-09-19T11:14:57;99131.38;;;25.73;52.79
79230;BME280;68663;49.122;17.544;2023-09-19T11:17:42;99132.97;;;25.74;52.64
79230;BME280;68663;49.122;17.544;2023-09-19T11:30:35;99133.31;;;25.76;52.78
79230;BME280;68663;49.122;17.544;2023-09-19T11:33:16;99141.81;;;25.76;52.88
79230;BME280;68663;49.122;17.544;2023-09-19T11:36:10;99136.94;;;25.76;52.39
79230;BME280;68663;49.122;17.544;2023-09-19T11:46:24;99126.06;;;25.75;52.45
79230;BME280;68663;49.122;17.544;2023-09-19T11:48:51;99124.00;;;25.75;52.75
79230;BME280;68663;49.122;17.544;2023-09-19T11:51:24;99128.88;;;25.75;52.70
79230;BME280;68663;49.122;17.544;2023-09-19T11:53:56;99124.81;;;25.76;52.35
79230;BME280;68663;49.122;17.544;2023-09-19T11:56:26;99128.09;;;25.74;52.63
79230;BME280;68663;49.122;17.544;2023-09-19T11:58:57;99133.75;;;25.74;52.71
79230;BME280;68663;49.122;17.544;2023-09-19T12:01:26;99132.97;;;25.74;52.43
79230;BME280;68663;49.122;17.544;2023-09-19T12:03:56;99142.69;;;25.73;52.88
79230;BME280;68663;49.122;17.544;2023-09-19T12:06:23;99135.78;;;25.74;52.90
79230;BME280;68663;49.122;17.544;2023-09-19T12:08:49;99137.03;;;25.73;52.88
79230;BME280;68663;49.122;17.544;2023-09-19T12:11:16;99132.97;;;25.74;52.35
79230;BME280;68663;49.122;17.544;2023-09-19T12:13:47;99133.75;;;25.74;52.79
79230;BME280;68663;49.122;17.544;2023-09-19T12:16:17;99134.66;;;25.71;52.47
79230;BME280;68663;49.122;17.544;2023-09-19T12:18:47;99143.50;;;25.73;52.71
79230;BME280;68663;49.122;17.544;2023-09-19T12:21:25;99137.47;;;25.71;52.71
79230;BME280;68663;49.122;17.544;2023-09-19T12:26:30;99132.25;;;25.69;52.62
79230;BME280;68663;49.122;17.544;2023-09-19T12:29:02;99132.25;;;25.69;53.36
79230;BME280;68663;49.122;17.544;2023-09-19T12:31:30;99138.81;;;25.66;52.77
79230;BME280;68663;49.122;17.544;2023-09-19T12:34:01;99137.94;;;25.69;52.92
79230;BME280;68663;49.122;17.544;2023-09-19T12:36:26;99137.94;;;25.69;52.79
79230;BME280;68663;49.122;17.544;2023-09-19T12:38:58;99139.16;;;25.68;52.65
79230;BME280;68663;49.122;17.544;2023-09-19T12:41:25;99146.44;;;25.69;52.61
79230;BME280;68663;49.122;17.544;2023-09-19T12:43:52;99137.47;;;25.71;52.93
79230;BME280;68663;49.122;17.544;2023-09-19T12:46:22;99137.47;;;25.71;52.62
79230;BME280;68663;49.122;17.544;2023-09-19T12:49:18;99141.91;;;25.72;52.42
79230;BME280;68663;49.122;17.544;2023-09-19T12:51:46;99145.53;;;25.73;52.60
79230;BME280;68663;49.122;17.544;2023-09-19T12:54:12;99145.19;;;25.70;52.54
79230;BME280;68663;49.122;17.544;2023-09-19T12:56:44;99148.81;;;25.71;52.72
79230;BME280;68663;49.122;17.544;2023-09-19T12:59:13;99143.16;;;25.71;52.57
79230;BME280;68663;49.122;17.544;2023-09-19T13:01:40;99145.97;;;25.71;52.42
79230;BME280;68663;49.122;17.544;2023-09-19T13:04:21;99142.78;;;25.69;52.63
79230;BME280;68663;49.122;17.544;2023-09-19T13:07:00;99150.84;;;25.70;52.86
79230;BME280;68663;49.122;17.544;2023-09-19T13:09:27;99141.56;;;25.70;52.69
79230;BME280;68663;49.122;17.544;2023-09-19T13:12:03;99143.59;;;25.69;52.58
79230;BME280;68663;49.122;17.544;2023-09-19T13:14:29;99140.41;;;25.67;53.25
79230;BME280;68663;49.122;17.544;2023-09-19T13:17:08;99143.59;;;25.69;53.07
79230;BME280;68663;49.122;17.544;2023-09-19T13:19:47;99134.41;;;25.65;52.46
79230;BME280;68663;49.122;17.544;2023-09-19T13:22:43;99139.16;;;25.68;53.02
79230;BME280;68663;49.122;17.544;2023-09-19T13:25:18;99132.25;;;25.69;52.94
79230;BME280;68663;49.122;17.544;2023-09-19T13:27:46;99137.13;;;25.69;52.96
79230;BME280;68663;49.122;17.544;2023-09-19T13:30:13;99133.06;;;25.70;52.69
79230;BME280;68663;49.122;17.544;2023-09-19T13:32:39;99132.25;;;25.69;53.14
79230;BME280;68663;49.122;17.544;2023-09-19T13:35:06;99132.25;;;25.69;52.54
79230;BME280;68663;49.122;17.544;2023-09-19T13:37:34;99130.69;;;25.68;52.74
79230;BME280;68663;49.122;17.544;2023-09-19T13:40:09;99130.69;;;25.68;52.86
79230;BME280;68663;49.122;17.544;2023-09-19T13:42:36;99124.56;;;25.70;53.25